sensor_id;sensor_type;location;lat;lon;timestamp;pressure;altitude;pressure_sealevel;temperature;humidity
68226;BME280;55045;49.410;11.030;2023-03-15T00:00:15;97470.47;;;1.71;100.00
68226;BME280;55045;49.410;11.030;2023-03-15T00:03:19;97482.94;;;1.48;100.00
68226;BME280;55045;49.410;11.030;2023-03-15T00:06:26;97483.44;;;1.25;100.00
68226;BME280;55045;49.410;11.030;2023-03-15T00:09:29;97473.22;;;1.62;100.00
68226;BME280;55045;49.410;11.030;2023-03-15T00:12:32;97478.22;;;1.30;100.00
68226;BME280;55045;49.410;11.030;2023-03-15T00:15:43;97485.63;;;1.43;100.00
68226;BME280;55045;49.410;11.030;2023-03-15T00:18:46;97488.56;;;1.25;100.00
68226;BME280;55045;49.410;11.030;2023-03-15T00:21:51;97514.91;;;1.27;100.00
68226;BME280;55045;49.410;11.030;2023-03-15T00:24:54;97514.19;;;1.21;100.00
68226;BME280;55045;49.410;11.030;2023-03-15T00:27:57;97515.00;;;1.23;100.00
68226;BME280;55045;49.410;11.030;2023-03-15T00:31:06;97515.56;;;1.37;100.00
68226;BME280;55045;49.410;11.030;2023-03-15T00:34:10;97525.63;;;1.43;100.00
68226;BME280;55045;49.410;11.030;2023-03-15T00:37:16;97544.50;;;1.37;100.00
68226;BME280;55045;49.410;11.030;2023-03-15T00:40:23;97548.50;;;1.49;100.00
68226;BME280;55045;49.410;11.030;2023-03-15T00:43:26;97552.09;;;1.40;100.00
68226;BME280;55045;49.410;11.030;2023-03-15T00:46:29;97550.09;;;1.53;100.00
68226;BME280;55045;49.410;11.030;2023-03-15T00:49:33;97560.44;;;1.49;100.00
68226;BME280;55045;49.410;11.030;2023-03-15T00:52:37;97564.16;;;1.32;100.00
68226;BME280;55045;49.410;11.030;2023-03-15T00:55:41;97568.19;;;1.46;100.00
68226;BME280;55045;49.410;11.030;2023-03-15T00:58:44;97524.69;;;1.07;100.00
68226;BME280;55045;49.410;11.030;2023-03-15T01:01:47;97587.94;;;1.37;100.00
68226;BME280;55045;49.410;11.030;2023-03-15T01:04:50;97594.59;;;1.44;100.00
68226;BME280;55045;49.410;11.030;2023-03-15T01:07:55;97603.34;;;1.34;100.00
68226;BME280;55045;49.410;11.030;2023-03-15T01:11:01;97603.91;;;1.04;100.00
68226;BME280;55045;49.410;11.030;2023-03-15T01:14:04;97601.06;;;0.71;100.00
68226;BME280;55045;49.410;11.030;2023-03-15T01:17:09;97614.63;;;0.76;100.00
68226;BME280;55045;49.410;11.030;2023-03-15T01:20:13;97622.38;;;0.70;100.00
68226;BME280;55045;49.410;11.030;2023-03-15T01:23:19;97625.44;;;0.38;100.00
68226;BME280;55045;49.410;11.030;2023-03-15T01:26:22;97553.91;;;-0.08;100.00
68226;BME280;55045;49.410;11.030;2023-03-15T01:29:26;97645.06;;;0.35;100.00
68226;BME280;55045;49.410;11.030;2023-03-15T01:32:29;97647.81;;;0.19;100.00
68226;BME280;55045;49.410;11.030;2023-03-15T01:35:32;97635.09;;;0.18;100.00
68226;BME280;55045;49.410;11.030;2023-03-15T01:38:37;97635.84;;;0.26;100.00
68226;BME280;55045;49.410;11.030;2023-03-15T01:41:41;97643.28;;;0.40;100.00
68226;BME280;55045;49.410;11.030;2023-03-15T01:44:50;97644.28;;;0.29;100.00
68226;BME280;55045;49.410;11.030;2023-03-15T01:47:54;97655.22;;;0.38;100.00
68226;BME280;55045;49.410;11.030;2023-03-15T01:50:59;97647.50;;;0.41;100.00
68226;BME280;55045;49.410;11.030;2023-03-15T01:54:08;97649.97;;;0.47;100.00
68226;BME280;55045;49.410;11.030;2023-03-15T01:57:15;97659.47;;;0.37;100.00
68226;BME280;55045;49.410;11.030;2023-03-15T02:00:20;97660.28;;;0.39;100.00
68226;BME280;55045;49.410;11.030;2023-03-15T02:03:36;97662.75;;;0.45;100.00
68226;BME280;55045;49.410;11.030;2023-03-15T02:06:48;97665.16;;;0.56;100.00
68226;BME280;55045;49.410;11.030;2023-03-15T02:09:59;97662.63;;;0.54;100.00
68226;BME280;55045;49.410;11.030;2023-03-15T02:13:07;97665.06;;;0.61;100.00
68226;BME280;55045;49.410;11.030;2023-03-15T02:16:10;97673.59;;;0.60;100.00
68226;BME280;55045;49.410;11.030;2023-03-15T02:19:30;97681.53;;;0.40;100.00
68226;BME280;55045;49.410;11.030;2023-03-15T02:22:45;97655.75;;;0.58;100.00
68226;BME280;55045;49.410;11.030;2023-03-15T02:25:54;97661.84;;;0.49;100.00
68226;BME280;55045;49.410;11.030;2023-03-15T02:29:04;97690.59;;;0.59;100.00
68226;BME280;55045;49.410;11.030;2023-03-15T02:32:07;97701.59;;;0.64;100.00
68226;BME280;55045;49.410;11.030;2023-03-15T02:35:10;97706.69;;;0.64;100.00
68226;BME280;55045;49.410;11.030;2023-03-15T02:38:14;97710.06;;;0.66;100.00
68226;BME280;55045;49.410;11.030;2023-03-15T02:41:30;97623.16;;;0.20;100.00
68226;BME280;55045;49.410;11.030;2023-03-15T02:44:37;97710.13;;;0.63;100.00
68226;BME280;55045;49.410;11.030;2023-03-15T02:47:42;97720.81;;;0.86;100.00
68226;BME280;55045;49.410;11.030;2023-03-15T02:50:46;97736.41;;;0.68;100.00
68226;BME280;55045;49.410;11.030;2023-03-15T02:53:49;97732.97;;;0.72;100.00
68226;BME280;55045;49.410;11.030;2023-03-15T02:56:53;97732.13;;;0.72;100.00
68226;BME280;55045;49.410;11.030;2023-03-15T02:59:58;97742.38;;;0.67;100.00
68226;BME280;55045;49.410;11.030;2023-03-15T03:03:07;97749.09;;;0.71;100.00
68226;BME280;55045;49.410;11.030;2023-03-15T03:06:12;97745.88;;;0.60;100.00
68226;BME280;55045;49.410;11.030;2023-03-15T03:09:16;97767.25;;;0.54;100.00
68226;BME280;55045;49.410;11.030;2023-03-15T03:12:20;97772.25;;;0.62;100.00
68226;BME280;55045;49.410;11.030;2023-03-15T03:15:24;97774.78;;;0.62;100.00
68226;BME280;55045;49.410;11.030;2023-03-15T03:18:29;97779.19;;;0.49;100.00
68226;BME280;55045;49.410;11.030;2023-03-15T03:21:33;97795.34;;;0.53;100.00
68226;BME280;55045;49.410;11.030;2023-03-15T03:24:36;97792.88;;;0.45;100.00
68226;BME280;55045;49.410;11.030;2023-03-15T03:27:40;97806.75;;;0.88;100.00
68226;BME280;55045;49.410;11.030;2023-03-15T03:30:46;97811.63;;;0.43;100.00
68226;BME280;55045;49.410;11.030;2023-03-15T03:33:50;97819.44;;;0.29;100.00
68226;BME280;55045;49.410;11.030;2023-03-15T03:36:54;97822.81;;;0.33;100.00
68226;BME280;55045;49.410;11.030;2023-03-15T03:40:12;97838.13;;;0.33;100.00
68226;BME280;55045;49.410;11.030;2023-03-15T03:43:15;97834.84;;;0.21;100.00
68226;BME280;55045;49.410;11.030;2023-03-15T03:46:20;97851.00;;;0.19;100.00
68226;BME280;55045;49.410;11.030;2023-03-15T03:49:26;97844.28;;;0.13;100.00
68226;BME280;55045;49.410;11.030;2023-03-15T03:52:29;97860.47;;;0.09;100.00
68226;BME280;55045;49.410;11.030;2023-03-15T03:55:40;97841.75;;;0.12;100.00
68226;BME280;55045;49.410;11.030;2023-03-15T03:58:44;97868.22;;;-0.02;100.00
68226;BME280;55045;49.410;11.030;2023-03-15T04:01:55;97865.56;;;0.09;100.00
68226;BME280;55045;49.410;11.030;2023-03-15T04:04:58;97880.22;;;-0.10;100.00
68226;BME280;55045;49.410;11.030;2023-03-15T04:08:02;97875.84;;;0.03;100.00
68226;BME280;55045;49.410;11.030;2023-03-15T04:11:11;97886.25;;;-0.18;100.00
68226;BME280;55045;49.410;11.030;2023-03-15T04:14:23;97889.59;;;-0.15;100.00
68226;BME280;55045;49.410;11.030;2023-03-15T04:17:28;97889.66;;;-0.22;100.00
68226;BME280;55045;49.410;11.030;2023-03-15T04:20:32;97899.06;;;-0.26;100.00
68226;BME280;55045;49.410;11.030;2023-03-15T04:23:37;97911.75;;;-0.18;100.00
68226;BME280;55045;49.410;11.030;2023-03-15T04:27:05;97907.59;;;-0.32;100.00
68226;BME280;55045;49.410;11.030;2023-03-15T04:34:16;97928.09;;;-0.47;100.00
68226;BME280;55045;49.410;11.030;2023-03-15T04:37:39;97938.25;;;-0.44;100.00
68226;BME280;55045;49.410;11.030;2023-03-15T04:41:00;97948.47;;;-0.44;100.00
68226;BME280;55045;49.410;11.030;2023-03-15T04:44:32;97958.69;;;-0.47;100.00
68226;BME280;55045;49.410;11.030;2023-03-15T04:48:09;97968.06;;;-0.55;100.00
68226;BME280;55045;49.410;11.030;2023-03-15T04:51:27;97969.78;;;-0.55;100.00
68226;BME280;55045;49.410;11.030;2023-03-15T04:54:45;97975.78;;;-0.61;100.00
68226;BME280;55045;49.410;11.030;2023-03-15T04:58:10;97981.69;;;-0.62;100.00
68226;BME280;55045;49.410;11.030;2023-03-15T05:01:26;97974.94;;;-0.66;100.00
68226;BME280;55045;49.410;11.030;2023-03-15T05:04:48;97969.88;;;-0.74;100.00
68226;BME280;55045;49.410;11.030;2023-03-15T05:08:13;97980.09;;;-0.83;100.00
68226;BME280;55045;49.410;11.030;2023-03-15T05:11:39;97985.16;;;-0.69;100.00
68226;BME280;55045;49.410;11.030;2023-03-15T05:15:06;97982.66;;;-0.84;100.00
68226;BME280;55045;49.410;11.030;2023-03-15T05:18:28;97998.03;;;-0.98;100.00
68226;BME280;55045;49.410;11.030;2023-03-15T05:21:57;97998.81;;;-0.89;100.00
68226;BME280;55045;49.410;11.030;2023-03-15T05:25:37;98003.03;;;-0.84;100.00
68226;BME280;55045;49.410;11.030;2023-03-15T05:29:03;98011.47;;;-0.75;100.00
68226;BME280;55045;49.410;11.030;2023-03-15T05:32:16;98020.03;;;-0.88;100.00
68226;BME280;55045;49.410;11.030;2023-03-15T05:35:45;98025.97;;;-0.88;100.00
68226;BME280;55045;49.410;11.030;2023-03-15T05:39:15;98031.91;;;-0.81;100.00
68226;BME280;55045;49.410;11.030;2023-03-15T05:42:43;98035.31;;;-0.90;100.00
68226;BME280;55045;49.410;11.030;2023-03-15T05:46:09;98022.56;;;-0.80;100.00
68226;BME280;55045;49.410;11.030;2023-03-15T05:49:31;98040.41;;;-0.93;100.00
68226;BME280;55045;49.410;11.030;2023-03-15T05:52:45;98046.34;;;-0.94;100.00
68226;BME280;55045;49.410;11.030;2023-03-15T05:56:07;98054.00;;;-0.91;100.00
68226;BME280;55045;49.410;11.030;2023-03-15T05:59:25;98059.09;;;-0.94;100.00
68226;BME280;55045;49.410;11.030;2023-03-15T06:02:47;98043.81;;;-0.95;100.00
68226;BME280;55045;49.410;11.030;2023-03-15T06:06:12;98071.78;;;-0.81;100.00
68226;BME280;55045;49.410;11.030;2023-03-15T06:09:16;98055.56;;;-0.64;100.00
68226;BME280;55045;49.410;11.030;2023-03-15T06:12:20;98085.28;;;-0.60;100.00
68226;BME280;55045;49.410;11.030;2023-03-15T06:15:25;98090.31;;;-0.49;100.00
68226;BME280;55045;49.410;11.030;2023-03-15T06:18:29;98076.78;;;-0.59;100.00
68226;BME280;55045;49.410;11.030;2023-03-15T06:21:33;98075.03;;;-0.47;100.00
68226;BME280;55045;49.410;11.030;2023-03-15T06:24:42;98058.91;;;-0.52;100.00
68226;BME280;55045;49.410;11.030;2023-03-15T06:27:46;98069.84;;;-0.34;100.00
68226;BME280;55045;49.410;11.030;2023-03-15T06:30:51;98068.22;;;-0.41;100.00
68226;BME280;55045;49.410;11.030;2023-03-15T06:33:59;98069.91;;;-0.40;100.00
68226;BME280;55045;49.410;11.030;2023-03-15T06:37:04;98084.19;;;-0.14;100.00
68226;BME280;55045;49.410;11.030;2023-03-15T06:40:09;98076.47;;;-0.05;100.00
68226;BME280;55045;49.410;11.030;2023-03-15T06:43:13;98080.53;;;0.20;100.00
68226;BME280;55045;49.410;11.030;2023-03-15T06:46:21;98045.91;;;-0.08;100.00
68226;BME280;55045;49.410;11.030;2023-03-15T06:49:25;98074.78;;;-0.05;100.00
68226;BME280;55045;49.410;11.030;2023-03-15T06:52:28;98076.38;;;0.07;100.00
68226;BME280;55045;49.410;11.030;2023-03-15T06:55:32;98078.09;;;0.05;100.00
68226;BME280;55045;49.410;11.030;2023-03-15T06:58:35;98073.50;;;0.48;100.00
68226;BME280;55045;49.410;11.030;2023-03-15T07:01:40;98070.31;;;0.25;100.00
68226;BME280;55045;49.410;11.030;2023-03-15T07:04:43;98027.19;;;-0.04;100.00
68226;BME280;55045;49.410;11.030;2023-03-15T07:07:47;98075.41;;;0.25;100.00
68226;BME280;55045;49.410;11.030;2023-03-15T07:10:50;98067.69;;;0.29;100.00
68226;BME280;55045;49.410;11.030;2023-03-15T07:13:53;98077.91;;;0.33;100.00
68226;BME280;55045;49.410;11.030;2023-03-15T07:16:58;98085.47;;;0.43;100.00
68226;BME280;55045;49.410;11.030;2023-03-15T07:20:02;98083.53;;;0.68;100.00
68226;BME280;55045;49.410;11.030;2023-03-15T07:23:06;98072.44;;;0.71;100.00
68226;BME280;55045;49.410;11.030;2023-03-15T07:26:10;98063.72;;;0.92;100.00
68226;BME280;55045;49.410;11.030;2023-03-15T07:29:13;98037.19;;;1.06;100.00
68226;BME280;55045;49.410;11.030;2023-03-15T07:32:17;98063.50;;;1.11;100.00
68226;BME280;55045;49.410;11.030;2023-03-15T07:35:20;98061.47;;;1.39;100.00
68226;BME280;55045;49.410;11.030;2023-03-15T07:38:26;98059.25;;;1.78;100.00
68226;BME280;55045;49.410;11.030;2023-03-15T07:41:30;98066.94;;;1.77;100.00
68226;BME280;55045;49.410;11.030;2023-03-15T07:44:47;98061.72;;;1.84;100.00
68226;BME280;55045;49.410;11.030;2023-03-15T07:47:51;98079.63;;;1.84;100.00
68226;BME280;55045;49.410;11.030;2023-03-15T07:50:57;98060.19;;;1.71;100.00
68226;BME280;55045;49.410;11.030;2023-03-15T07:54:00;98090.47;;;2.00;100.00
68226;BME280;55045;49.410;11.030;2023-03-15T07:57:05;98086.06;;;2.10;100.00
68226;BME280;55045;49.410;11.030;2023-03-15T08:00:10;98085.53;;;1.88;100.00
68226;BME280;55045;49.410;11.030;2023-03-15T08:03:16;98092.59;;;2.29;100.00
68226;BME280;55045;49.410;11.030;2023-03-15T08:06:19;98082.31;;;2.32;100.00
68226;BME280;55045;49.410;11.030;2023-03-15T08:09:23;98090.63;;;2.45;100.00
68226;BME280;55045;49.410;11.030;2023-03-15T08:12:27;98087.84;;;2.58;100.00
68226;BME280;55045;49.410;11.030;2023-03-15T08:15:31;98086.00;;;2.65;100.00
68226;BME280;55045;49.410;11.030;2023-03-15T08:18:35;98092.84;;;2.65;100.00
68226;BME280;55045;49.410;11.030;2023-03-15T08:21:39;98085.25;;;2.60;100.00
68226;BME280;55045;49.410;11.030;2023-03-15T08:24:46;98092.22;;;3.01;100.00
68226;BME280;55045;49.410;11.030;2023-03-15T08:27:50;98108.59;;;2.42;100.00
68226;BME280;55045;49.410;11.030;2023-03-15T08:30:54;98097.59;;;2.86;100.00
68226;BME280;55045;49.410;11.030;2023-03-15T08:33:58;98089.88;;;2.89;100.00
68226;BME280;55045;49.410;11.030;2023-03-15T08:37:02;98099.78;;;3.07;100.00
68226;BME280;55045;49.410;11.030;2023-03-15T08:40:07;98088.84;;;2.99;100.00
68226;BME280;55045;49.410;11.030;2023-03-15T08:43:11;98091.28;;;3.05;100.00
68226;BME280;55045;49.410;11.030;2023-03-15T08:46:14;98091.94;;;3.15;100.00
68226;BME280;55045;49.410;11.030;2023-03-15T08:49:19;98098.53;;;3.28;100.00
68226;BME280;55045;49.410;11.030;2023-03-15T08:52:23;98106.31;;;3.24;100.00
68226;BME280;55045;49.410;11.030;2023-03-15T08:55:26;98024.53;;;2.68;100.00
68226;BME280;55045;49.410;11.030;2023-03-15T08:58:29;98102.50;;;3.43;100.00
68226;BME280;55045;49.410;11.030;2023-03-15T09:01:33;98105.88;;;3.45;100.00
68226;BME280;55045;49.410;11.030;2023-03-15T09:04:38;98109.16;;;3.53;100.00
68226;BME280;55045;49.410;11.030;2023-03-15T09:07:41;98110.88;;;3.53;100.00
68226;BME280;55045;49.410;11.030;2023-03-15T09:10:45;98119.34;;;3.96;100.00
68226;BME280;55045;49.410;11.030;2023-03-15T09:13:48;98117.34;;;4.46;100.00
68226;BME280;55045;49.410;11.030;2023-03-15T09:16:51;98114.63;;;3.78;100.00
68226;BME280;55045;49.410;11.030;2023-03-15T09:19:56;98119.34;;;3.56;100.00
68226;BME280;55045;49.410;11.030;2023-03-15T09:22:59;98118.00;;;3.37;100.00
68226;BME280;55045;49.410;11.030;2023-03-15T09:26:02;98122.50;;;3.67;100.00
68226;BME280;55045;49.410;11.030;2023-03-15T09:29:06;98126.75;;;3.27;100.00
68226;BME280;55045;49.410;11.030;2023-03-15T09:32:10;98132.78;;;3.24;100.00
68226;BME280;55045;49.410;11.030;2023-03-15T09:35:18;98131.81;;;3.73;100.00
68226;BME280;55045;49.410;11.030;2023-03-15T09:38:21;98123.88;;;3.43;100.00
68226;BME280;55045;49.410;11.030;2023-03-15T09:41:36;98125.41;;;3.52;100.00
68226;BME280;55045;49.410;11.030;2023-03-15T09:44:44;98130.91;;;3.75;100.00
68226;BME280;55045;49.410;11.030;2023-03-15T09:47:51;98134.25;;;3.36;100.00
68226;BME280;55045;49.410;11.030;2023-03-15T09:51:01;98135.72;;;3.49;100.00
68226;BME280;55045;49.410;11.030;2023-03-15T09:54:11;98132.16;;;3.11;100.00
68226;BME280;55045;49.410;11.030;2023-03-15T09:57:16;98143.09;;;3.21;100.00
68226;BME280;55045;49.410;11.030;2023-03-15T10:00:24;98137.84;;;3.29;100.00
68226;BME280;55045;49.410;11.030;2023-03-15T10:03:32;98140.09;;;3.44;100.00
68226;BME280;55045;49.410;11.030;2023-03-15T10:06:42;98145.56;;;3.26;100.00
68226;BME280;55045;49.410;11.030;2023-03-15T10:09:49;98145.91;;;3.07;100.00
68226;BME280;55045;49.410;11.030;2023-03-15T10:12:57;98144.53;;;2.88;100.00
68226;BME280;55045;49.410;11.030;2023-03-15T10:16:11;98103.81;;;2.73;100.00
68226;BME280;55045;49.410;11.030;2023-03-15T10:19:24;98126.44;;;2.99;100.00
68226;BME280;55045;49.410;11.030;2023-03-15T10:22:37;98142.78;;;2.90;100.00
68226;BME280;55045;49.410;11.030;2023-03-15T10:25:43;98107.91;;;2.83;100.00
68226;BME280;55045;49.410;11.030;2023-03-15T10:28:48;98134.44;;;3.27;100.00
68226;BME280;55045;49.410;11.030;2023-03-15T10:34:15;98131.97;;;3.22;100.00
68226;BME280;55045;49.410;11.030;2023-03-15T10:37:19;98131.47;;;3.48;100.00
68226;BME280;55045;49.410;11.030;2023-03-15T10:40:41;98144.09;;;3.57;100.00
68226;BME280;55045;49.410;11.030;2023-03-15T10:43:57;98122.94;;;3.46;100.00
68226;BME280;55045;49.410;11.030;2023-03-15T10:47:03;98148.59;;;3.47;100.00
68226;BME280;55045;49.410;11.030;2023-03-15T10:50:27;98141.84;;;3.42;100.00
68226;BME280;55045;49.410;11.030;2023-03-15T10:53:31;98136.56;;;3.50;100.00
68226;BME280;55045;49.410;11.030;2023-03-15T10:56:36;98144.41;;;3.42;100.00
68226;BME280;55045;49.410;11.030;2023-03-15T10:59:53;98141.63;;;3.08;100.00
68226;BME280;55045;49.410;11.030;2023-03-15T11:03:01;98145.91;;;3.07;100.00
68226;BME280;55045;49.410;11.030;2023-03-15T11:06:17;98145.78;;;3.13;100.00
68226;BME280;55045;49.410;11.030;2023-03-15T11:09:23;98148.50;;;3.04;100.00
68226;BME280;55045;49.410;11.030;2023-03-15T11:12:28;98077.25;;;2.29;100.00
68226;BME280;55045;49.410;11.030;2023-03-15T11:15:32;98147.50;;;2.64;100.00
68226;BME280;55045;49.410;11.030;2023-03-15T11:18:41;98151.59;;;2.74;100.00
68226;BME280;55045;49.410;11.030;2023-03-15T11:21:48;98144.91;;;2.67;100.00
68226;BME280;55045;49.410;11.030;2023-03-15T11:24:53;98147.41;;;2.70;100.00
68226;BME280;55045;49.410;11.030;2023-03-15T11:27:56;98150.94;;;2.63;100.00
68226;BME280;55045;49.410;11.030;2023-03-15T11:31:01;98153.41;;;2.69;100.00
68226;BME280;55045;49.410;11.030;2023-03-15T11:34:08;98151.13;;;2.50;100.00
68226;BME280;55045;49.410;11.030;2023-03-15T11:37:19;98148.38;;;2.63;100.00
68226;BME280;55045;49.410;11.030;2023-03-15T11:40:24;98150.06;;;2.64;100.00
68226;BME280;55045;49.410;11.030;2023-03-15T11:43:43;98160.28;;;2.64;100.00
68226;BME280;55045;49.410;11.030;2023-03-15T11:46:51;98158.47;;;2.72;100.00
68226;BME280;55045;49.410;11.030;2023-03-15T11:49:58;98165.63;;;2.51;100.00
68226;BME280;55045;49.410;11.030;2023-03-15T11:53:03;98169.28;;;2.35;100.00
68226;BME280;55045;49.410;11.030;2023-03-15T11:56:23;98166.56;;;2.44;100.00
68226;BME280;55045;49.410;11.030;2023-03-15T11:59:28;98158.81;;;2.50;100.00
68226;BME280;55045;49.410;11.030;2023-03-15T12:02:47;98171.13;;;2.24;100.00
68226;BME280;55045;49.410;11.030;2023-03-15T12:05:52;98178.69;;;2.33;100.00
68226;BME280;55045;49.410;11.030;2023-03-15T12:09:39;98180.66;;;2.16;100.00
68226;BME280;55045;49.410;11.030;2023-03-15T12:12:56;98181.53;;;2.12;100.00
68226;BME280;55045;49.410;11.030;2023-03-15T12:16:00;98189.19;;;2.13;100.00
68226;BME280;55045;49.410;11.030;2023-03-15T12:19:09;98201.16;;;2.11;100.00
68226;BME280;55045;49.410;11.030;2023-03-15T12:22:16;98199.38;;;2.18;100.00
68226;BME280;55045;49.410;11.030;2023-03-15T12:25:23;98200.22;;;2.18;100.00
68226;BME280;55045;49.410;11.030;2023-03-15T12:28:34;98238.03;;;1.96;100.00
68226;BME280;55045;49.410;11.030;2023-03-15T12:31:50;98238.88;;;1.94;100.00
68226;BME280;55045;49.410;11.030;2023-03-15T12:34:55;98247.47;;;1.90;100.00
68226;BME280;55045;49.410;11.030;2023-03-15T12:37:59;98239.72;;;1.97;100.00
68226;BME280;55045;49.410;11.030;2023-03-15T12:41:08;98256.56;;;2.14;100.00
68226;BME280;55045;49.410;11.030;2023-03-15T12:44:26;98249.47;;;2.36;100.00
68226;BME280;55045;49.410;11.030;2023-03-15T12:47:43;98253.59;;;2.47;100.00
68226;BME280;55045;49.410;11.030;2023-03-15T12:50:58;98249.78;;;2.10;100.00
68226;BME280;55045;49.410;11.030;2023-03-15T12:54:03;98248.88;;;2.17;100.00
68226;BME280;55045;49.410;11.030;2023-03-15T12:57:11;98238.81;;;2.65;100.00
68226;BME280;55045;49.410;11.030;2023-03-15T13:00:16;98234.00;;;2.43;100.00
68226;BME280;55045;49.410;11.030;2023-03-15T13:03:22;98232.13;;;2.54;100.00
68226;BME280;55045;49.410;11.030;2023-03-15T13:06:36;98221.00;;;2.58;100.00
68226;BME280;55045;49.410;11.030;2023-03-15T13:10:03;98214.38;;;2.45;100.00
68226;BME280;55045;49.410;11.030;2023-03-15T13:13:20;98211.94;;;2.36;100.00
68226;BME280;55045;49.410;11.030;2023-03-15T13:16:30;98197.53;;;2.27;100.00
68226;BME280;55045;49.410;11.030;2023-03-15T13:19:39;98193.09;;;2.40;100.00
68226;BME280;55045;49.410;11.030;2023-03-15T13:22:49;98192.59;;;2.14;100.00
68226;BME280;55045;49.410;11.030;2023-03-15T13:26:07;98207.09;;;2.15;100.00
68226;BME280;55045;49.410;11.030;2023-03-15T13:29:18;98203.25;;;2.45;100.00
68226;BME280;55045;49.410;11.030;2023-03-15T13:32:23;98205.66;;;2.57;100.00
68226;BME280;55045;49.410;11.030;2023-03-15T13:35:27;98198.03;;;2.52;100.00
68226;BME280;55045;49.410;11.030;2023-03-15T13:38:31;98203.16;;;2.52;100.00
68226;BME280;55045;49.410;11.030;2023-03-15T13:41:37;98204.69;;;2.63;100.00
68226;BME280;55045;49.410;11.030;2023-03-15T13:44:42;98198.97;;;2.47;100.00
68226;BME280;55045;49.410;11.030;2023-03-15T13:47:45;98200.72;;;2.43;100.00
68226;BME280;55045;49.410;11.030;2023-03-15T13:50:49;98197.34;;;2.41;100.00
68226;BME280;55045;49.410;11.030;2023-03-15T13:53:54;98200.59;;;2.52;100.00
68226;BME280;55045;49.410;11.030;2023-03-15T13:57:01;98201.72;;;2.33;100.00
68226;BME280;55045;49.410;11.030;2023-03-15T14:00:11;98205.16;;;2.30;100.00
68226;BME280;55045;49.410;11.030;2023-03-15T14:03:20;98176.13;;;2.33;100.00
68226;BME280;55045;49.410;11.030;2023-03-15T14:06:25;98197.28;;;2.44;100.00
68226;BME280;55045;49.410;11.030;2023-03-15T14:09:29;98206.50;;;2.57;100.00
68226;BME280;55045;49.410;11.030;2023-03-15T14:12:33;98186.97;;;2.50;100.00
68226;BME280;55045;49.410;11.030;2023-03-15T14:15:41;98203.94;;;2.57;100.00
68226;BME280;55045;49.410;11.030;2023-03-15T14:18:45;98194.59;;;2.53;100.00
68226;BME280;55045;49.410;11.030;2023-03-15T14:21:53;98198.00;;;2.55;100.00
68226;BME280;55045;49.410;11.030;2023-03-15T14:24:56;98198.94;;;2.48;100.00
68226;BME280;55045;49.410;11.030;2023-03-15T14:28:00;98191.00;;;2.67;100.00
68226;BME280;55045;49.410;11.030;2023-03-15T14:31:05;98200.53;;;2.57;100.00
68226;BME280;55045;49.410;11.030;2023-03-15T14:34:17;98193.72;;;2.54;100.00
68226;BME280;55045;49.410;11.030;2023-03-15T14:37:29;98199.03;;;2.42;100.00
68226;BME280;55045;49.410;11.030;2023-03-15T14:40:37;98198.00;;;2.55;100.00
68226;BME280;55045;49.410;11.030;2023-03-15T14:43:41;98205.53;;;2.63;100.00
68226;BME280;55045;49.410;11.030;2023-03-15T14:46:45;98200.59;;;2.52;100.00
68226;BME280;55045;49.410;11.030;2023-03-15T14:49:49;98210.00;;;2.50;100.00
68226;BME280;55045;49.410;11.030;2023-03-15T14:52:52;98202.13;;;2.64;100.00
68226;BME280;55045;49.410;11.030;2023-03-15T14:55:56;98206.94;;;2.84;100.00
68226;BME280;55045;49.410;11.030;2023-03-15T14:58:59;98202.69;;;2.83;100.00
68226;BME280;55045;49.410;11.030;2023-03-15T15:02:08;98202.72;;;2.80;100.00
68226;BME280;55045;49.410;11.030;2023-03-15T15:05:19;98202.94;;;2.65;100.00
68226;BME280;55045;49.410;11.030;2023-03-15T15:08:25;98201.38;;;2.57;100.00
68226;BME280;55045;49.410;11.030;2023-03-15T15:11:29;98199.53;;;2.66;100.00
68226;BME280;55045;49.410;11.030;2023-03-15T15:14:32;98200.22;;;2.77;100.00
68226;BME280;55045;49.410;11.030;2023-03-15T15:17:36;98205.50;;;2.65;100.00
68226;BME280;55045;49.410;11.030;2023-03-15T15:20:40;98176.81;;;2.46;100.00
68226;BME280;55045;49.410;11.030;2023-03-15T15:23:44;98210.81;;;2.55;100.00
68226;BME280;55045;49.410;11.030;2023-03-15T15:26:59;98216.59;;;2.67;100.00
68226;BME280;55045;49.410;11.030;2023-03-15T15:30:04;98217.44;;;2.67;100.00
68226;BME280;55045;49.410;11.030;2023-03-15T15:33:09;98210.31;;;2.87;100.00
68226;BME280;55045;49.410;11.030;2023-03-15T15:36:15;98211.56;;;3.13;100.00
68226;BME280;55045;49.410;11.030;2023-03-15T15:39:23;98206.91;;;3.35;100.00
68226;BME280;55045;49.410;11.030;2023-03-15T15:42:28;98206.59;;;3.04;100.00
68226;BME280;55045;49.410;11.030;2023-03-15T15:45:31;98214.75;;;2.75;100.00
68226;BME280;55045;49.410;11.030;2023-03-15T15:48:37;98219.72;;;2.84;100.00
68226;BME280;55045;49.410;11.030;2023-03-15T15:51:42;98215.00;;;2.59;100.00
68226;BME280;55045;49.410;11.030;2023-03-15T15:54:47;98222.44;;;2.75;100.00
68226;BME280;55045;49.410;11.030;2023-03-15T15:57:51;98224.13;;;2.76;100.00
68226;BME280;55045;49.410;11.030;2023-03-15T16:00:55;98218.06;;;2.81;100.00
68226;BME280;55045;49.410;11.030;2023-03-15T16:04:00;98208.69;;;2.80;100.00
68226;BME280;55045;49.410;11.030;2023-03-15T16:07:04;98213.06;;;2.74;100.00
68226;BME280;55045;49.410;11.030;2023-03-15T16:10:15;98217.44;;;2.66;100.00
68226;BME280;55045;49.410;11.030;2023-03-15T16:13:18;98228.44;;;2.74;100.00
68226;BME280;55045;49.410;11.030;2023-03-15T16:16:21;98217.13;;;2.85;100.00
68226;BME280;55045;49.410;11.030;2023-03-15T16:19:26;98232.63;;;2.79;100.00
68226;BME280;55045;49.410;11.030;2023-03-15T16:22:29;98233.56;;;2.74;100.00
68226;BME280;55045;49.410;11.030;2023-03-15T16:25:34;98244.63;;;2.77;100.00